To NAV CANADA Home Page Login to a new session Search on AWWS site Disclaimer Vers la page française équivalente Tips FAQ What's new on the site To the Forecasts and Observations / NOTAM section To "File a Flight Plan" website Publications and other links Update of the User's profile FIC Telephone Numbers My Weather Data Folder Route Weather Data Regional Weather Data Local Weather Data To the Forecasts and Observations / NOTAM section
Request Generated 04/24/2019 at 16:02:19 UTC . Weather information available at that time is displayed.

METAR/TAF

KANGIQSUJUAQ (WAKEHAM BAY)/QC    

METAR CYKG 241600Z VRB04KT 15SM FEW250 M12/M19 A3004 RMK CI2 SLP193=
METAR CYKG 241500Z 25006KT 15SM SCT250 M13/M20 A3006 RMK CI4 SLP200=
METAR CYKG 241400Z 28002KT 15SM SCT250 M14/M21 A3008 RMK CI4 SLP206=

TAF CYKG 241340Z 2414/2421 VRB03KT P6SM BKN200
BECMG 2416/2418 24012KT
BECMG 2419/2421 24018KT
RMK NXT FCST WILL BE ISSUED AT 251345Z=
Your time UTC time
Weather data provided by Environment Canada and NAV CANADA